sensor_id;sensor_type;location;lat;lon;timestamp;pressure;altitude;pressure_sealevel;temperature;humidity
71770;BME280;66386;52.122;5.420;2024-01-25T00:01:45;102800.56;;;6.81;100.00
71770;BME280;66386;52.122;5.420;2024-01-25T00:04:12;102796.28;;;6.80;100.00
71770;BME280;66386;52.122;5.420;2024-01-25T00:06:39;102790.28;;;6.75;100.00
71770;BME280;66386;52.122;5.420;2024-01-25T00:09:05;102797.94;;;6.73;100.00
71770;BME280;66386;52.122;5.420;2024-01-25T00:11:33;102796.19;;;6.69;100.00
71770;BME280;66386;52.122;5.420;2024-01-25T00:14:01;102795.28;;;6.64;100.00
71770;BME280;66386;52.122;5.420;2024-01-25T00:16:28;102799.53;;;6.62;100.00
71770;BME280;66386;52.122;5.420;2024-01-25T00:18:54;102807.19;;;6.62;100.00
71770;BME280;66386;52.122;5.420;2024-01-25T00:21:21;102807.16;;;6.60;100.00
71770;BME280;66386;52.122;5.420;2024-01-25T00:23:47;102802.03;;;6.57;100.00
71770;BME280;66386;52.122;5.420;2024-01-25T00:26:14;102800.25;;;6.50;100.00
71770;BME280;66386;52.122;5.420;2024-01-25T00:28:40;102805.28;;;6.45;100.00
71770;BME280;66386;52.122;5.420;2024-01-25T00:31:06;102802.69;;;6.42;100.00
71770;BME280;66386;52.122;5.420;2024-01-25T00:33:33;102801.78;;;6.39;100.00
71770;BME280;66386;52.122;5.420;2024-01-25T00:36:00;102798.38;;;6.35;100.00
71770;BME280;66386;52.122;5.420;2024-01-25T00:38:27;102802.56;;;6.33;100.00
71770;BME280;66386;52.122;5.420;2024-01-25T00:40:54;102802.53;;;6.28;100.00
71770;BME280;66386;52.122;5.420;2024-01-25T00:43:21;102812.69;;;6.25;100.00
71770;BME280;66386;52.122;5.420;2024-01-25T00:45:48;102805.88;;;6.26;100.00
71770;BME280;66386;52.122;5.420;2024-01-25T00:48:15;102814.38;;;6.25;100.00
71770;BME280;66386;52.122;5.420;2024-01-25T00:50:42;102810.91;;;6.20;100.00
71770;BME280;66386;52.122;5.420;2024-01-25T00:53:09;102816.84;;;6.17;100.00
71770;BME280;66386;52.122;5.420;2024-01-25T00:55:36;102825.28;;;6.13;100.00
71770;BME280;66386;52.122;5.420;2024-01-25T00:58:03;102820.13;;;6.10;100.00
71770;BME280;66386;52.122;5.420;2024-01-25T01:00:30;102827.78;;;6.08;100.00
71770;BME280;66386;52.122;5.420;2024-01-25T01:02:57;102834.56;;;6.05;100.00
71770;BME280;66386;52.122;5.420;2024-01-25T01:05:26;102842.13;;;5.99;100.00
71770;BME280;66386;52.122;5.420;2024-01-25T01:07:53;102839.47;;;5.95;100.00
71770;BME280;66386;52.122;5.420;2024-01-25T01:10:20;102830.91;;;5.90;100.00
71770;BME280;66386;52.122;5.420;2024-01-25T01:12:46;102833.41;;;5.87;100.00
71770;BME280;66386;52.122;5.420;2024-01-25T01:15:13;102832.47;;;5.82;100.00
71770;BME280;66386;52.122;5.420;2024-01-25T01:17:40;102845.25;;;5.84;100.00
71770;BME280;66386;52.122;5.420;2024-01-25T01:20:07;102852.00;;;5.79;100.00
71770;BME280;66386;52.122;5.420;2024-01-25T01:22:34;102854.41;;;5.71;100.00
71770;BME280;66386;52.122;5.420;2024-01-25T01:25:00;102853.50;;;5.66;100.00
71770;BME280;66386;52.122;5.420;2024-01-25T01:27:27;102857.72;;;5.64;100.00
71770;BME280;66386;52.122;5.420;2024-01-25T01:29:53;102851.72;;;5.62;100.00
71770;BME280;66386;52.122;5.420;2024-01-25T01:32:20;102858.50;;;5.59;100.00
71770;BME280;66386;52.122;5.420;2024-01-25T01:34:46;102850.81;;;5.58;100.00
71770;BME280;66386;52.122;5.420;2024-01-25T01:37:13;102866.09;;;5.56;100.00
71770;BME280;66386;52.122;5.420;2024-01-25T01:39:40;102859.25;;;5.54;100.00
71770;BME280;66386;52.122;5.420;2024-01-25T01:42:06;102853.25;;;5.53;100.00
71770;BME280;66386;52.122;5.420;2024-01-25T01:44:33;102851.56;;;5.52;100.00
71770;BME280;66386;52.122;5.420;2024-01-25T01:46:59;102854.94;;;5.51;100.00
71770;BME280;66386;52.122;5.420;2024-01-25T01:49:27;102858.22;;;5.44;100.00
71770;BME280;66386;52.122;5.420;2024-01-25T01:51:54;102870.06;;;5.40;100.00
71770;BME280;66386;52.122;5.420;2024-01-25T01:54:21;102872.50;;;5.34;100.00
71770;BME280;66386;52.122;5.420;2024-01-25T01:56:48;102863.88;;;5.26;100.00
71770;BME280;66386;52.122;5.420;2024-01-25T01:59:15;102868.84;;;5.18;100.00
71770;BME280;66386;52.122;5.420;2024-01-25T02:01:42;102869.59;;;5.13;100.00
71770;BME280;66386;52.122;5.420;2024-01-25T02:04:09;102882.22;;;5.08;100.00
71770;BME280;66386;52.122;5.420;2024-01-25T02:06:36;102877.03;;;5.03;100.00
71770;BME280;66386;52.122;5.420;2024-01-25T02:09:03;102882.06;;;5.00;100.00
71770;BME280;66386;52.122;5.420;2024-01-25T02:11:31;102877.75;;;4.96;100.00
71770;BME280;66386;52.122;5.420;2024-01-25T02:13:57;102886.13;;;4.90;100.00
71770;BME280;66386;52.122;5.420;2024-01-25T02:16:24;102885.28;;;4.90;100.00
71770;BME280;66386;52.122;5.420;2024-01-25T02:18:51;102888.59;;;4.86;100.00
71770;BME280;66386;52.122;5.420;2024-01-25T02:21:20;102900.41;;;4.82;100.00
71770;BME280;66386;52.122;5.420;2024-01-25T02:23:47;102908.00;;;4.79;100.00
71770;BME280;66386;52.122;5.420;2024-01-25T02:28:44;102915.50;;;4.73;100.00
71770;BME280;66386;52.122;5.420;2024-01-25T02:31:11;102914.56;;;4.68;100.00
71770;BME280;66386;52.122;5.420;2024-01-25T02:33:37;102916.22;;;4.66;100.00
71770;BME280;66386;52.122;5.420;2024-01-25T02:36:04;102914.38;;;4.59;100.00
71770;BME280;66386;52.122;5.420;2024-01-25T02:38:31;102921.03;;;4.53;100.00
71770;BME280;66386;52.122;5.420;2024-01-25T02:40:58;102915.00;;;4.48;100.00
71770;BME280;66386;52.122;5.420;2024-01-25T02:43:24;102922.50;;;4.44;100.00
71770;BME280;66386;52.122;5.420;2024-01-25T02:45:51;102922.34;;;4.36;100.00
71770;BME280;66386;52.122;5.420;2024-01-25T02:48:17;102917.97;;;4.30;100.00
71770;BME280;66386;52.122;5.420;2024-01-25T02:50:44;102926.31;;;4.25;100.00
71770;BME280;66386;52.122;5.420;2024-01-25T02:53:11;102922.84;;;4.21;100.00
71770;BME280;66386;52.122;5.420;2024-01-25T02:55:38;102928.72;;;4.18;100.00
71770;BME280;66386;52.122;5.420;2024-01-25T02:58:04;102931.22;;;4.17;100.00
71770;BME280;66386;52.122;5.420;2024-01-25T03:00:31;102934.50;;;4.11;100.00
71770;BME280;66386;52.122;5.420;2024-01-25T03:02:58;102927.53;;;4.04;100.00
71770;BME280;66386;52.122;5.420;2024-01-25T03:05:25;102929.94;;;3.98;100.00
71770;BME280;66386;52.122;5.420;2024-01-25T03:07:52;102934.13;;;3.96;100.00
71770;BME280;66386;52.122;5.420;2024-01-25T03:10:18;102923.88;;;3.93;100.00
71770;BME280;66386;52.122;5.420;2024-01-25T03:12:46;102916.09;;;3.87;100.00
71770;BME280;66386;52.122;5.420;2024-01-25T03:15:13;102919.28;;;3.79;100.00
71770;BME280;66386;52.122;5.420;2024-01-25T03:17:41;102919.38;;;3.82;100.00
71770;BME280;66386;52.122;5.420;2024-01-25T03:20:08;102921.13;;;3.85;100.00
71770;BME280;66386;52.122;5.420;2024-01-25T03:22:35;102922.72;;;3.80;100.00
71770;BME280;66386;52.122;5.420;2024-01-25T03:25:02;102926.72;;;3.70;100.00
71770;BME280;66386;52.122;5.420;2024-01-25T03:27:28;102925.69;;;3.63;100.00
71770;BME280;66386;52.122;5.420;2024-01-25T03:29:55;102928.03;;;3.56;100.00
71770;BME280;66386;52.122;5.420;2024-01-25T03:32:21;102937.28;;;3.52;100.00
71770;BME280;66386;52.122;5.420;2024-01-25T03:34:48;102932.16;;;3.51;100.00
71770;BME280;66386;52.122;5.420;2024-01-25T03:37:16;102931.97;;;3.44;100.00
71770;BME280;66386;52.122;5.420;2024-01-25T03:39:43;102931.84;;;3.40;100.00
71770;BME280;66386;52.122;5.420;2024-01-25T03:42:09;102928.38;;;3.36;100.00
71770;BME280;66386;52.122;5.420;2024-01-25T03:44:36;102923.09;;;3.30;100.00
71770;BME280;66386;52.122;5.420;2024-01-25T03:47:02;102918.75;;;3.24;100.00
71770;BME280;66386;52.122;5.420;2024-01-25T03:49:29;102914.44;;;3.22;100.00
71770;BME280;66386;52.122;5.420;2024-01-25T03:51:57;102915.25;;;3.21;100.00
71770;BME280;66386;52.122;5.420;2024-01-25T03:54:23;102921.91;;;3.16;100.00
71770;BME280;66386;52.122;5.420;2024-01-25T03:56:50;102917.63;;;3.14;100.00
71770;BME280;66386;52.122;5.420;2024-01-25T03:59:17;102917.59;;;3.13;100.00
71770;BME280;66386;52.122;5.420;2024-01-25T04:01:44;102919.16;;;3.09;100.00
71770;BME280;66386;52.122;5.420;2024-01-25T04:04:11;102929.25;;;3.06;100.00
71770;BME280;66386;52.122;5.420;2024-01-25T04:06:43;102926.66;;;3.05;100.00
71770;BME280;66386;52.122;5.420;2024-01-25T04:09:10;102929.13;;;3.02;100.00
71770;BME280;66386;52.122;5.420;2024-01-25T04:11:37;102921.28;;;2.94;100.00
71770;BME280;66386;52.122;5.420;2024-01-25T04:14:04;102922.06;;;2.91;100.00
71770;BME280;66386;52.122;5.420;2024-01-25T04:16:32;102915.13;;;2.86;100.00
71770;BME280;66386;52.122;5.420;2024-01-25T04:18:59;102922.69;;;2.84;100.00
71770;BME280;66386;52.122;5.420;2024-01-25T04:21:27;102918.41;;;2.83;100.00
71770;BME280;66386;52.122;5.420;2024-01-25T04:23:53;102920.81;;;2.78;100.00
71770;BME280;66386;52.122;5.420;2024-01-25T04:26:20;102924.25;;;2.79;100.00
71770;BME280;66386;52.122;5.420;2024-01-25T04:28:46;102933.53;;;2.78;100.00
71770;BME280;66386;52.122;5.420;2024-01-25T04:31:13;102925.59;;;2.68;100.00
71770;BME280;66386;52.122;5.420;2024-01-25T04:33:39;102924.63;;;2.64;100.00
71770;BME280;66386;52.122;5.420;2024-01-25T04:36:12;102929.63;;;2.61;100.00
71770;BME280;66386;52.122;5.420;2024-01-25T04:38:38;102933.94;;;2.64;100.00
71770;BME280;66386;52.122;5.420;2024-01-25T04:41:05;102938.94;;;2.60;100.00
71770;BME280;66386;52.122;5.420;2024-01-25T04:43:36;102932.88;;;2.57;100.00
71770;BME280;66386;52.122;5.420;2024-01-25T04:46:03;102934.63;;;2.58;100.00
71770;BME280;66386;52.122;5.420;2024-01-25T04:48:30;102936.16;;;2.53;100.00
71770;BME280;66386;52.122;5.420;2024-01-25T04:50:57;102937.78;;;2.51;100.00
71770;BME280;66386;52.122;5.420;2024-01-25T04:53:25;102930.97;;;2.50;100.00
71770;BME280;66386;52.122;5.420;2024-01-25T04:55:53;102929.97;;;2.44;100.00
71770;BME280;66386;52.122;5.420;2024-01-25T04:58:20;102932.53;;;2.44;100.00
71770;BME280;66386;52.122;5.420;2024-01-25T05:00:47;102937.50;;;2.41;100.00
71770;BME280;66386;52.122;5.420;2024-01-25T05:03:13;102930.75;;;2.42;100.00
71770;BME280;66386;52.122;5.420;2024-01-25T05:05:40;102926.38;;;2.38;100.00
71770;BME280;66386;52.122;5.420;2024-01-25T05:08:07;102938.19;;;2.36;100.00
71770;BME280;66386;52.122;5.420;2024-01-25T05:10:33;102944.09;;;2.36;100.00
71770;BME280;66386;52.122;5.420;2024-01-25T05:13:00;102947.53;;;2.37;100.00
71770;BME280;66386;52.122;5.420;2024-01-25T05:15:27;102941.47;;;2.33;100.00
71770;BME280;66386;52.122;5.420;2024-01-25T05:17:53;102938.69;;;2.25;100.00
71770;BME280;66386;52.122;5.420;2024-01-25T05:20:20;102937.91;;;2.26;100.00
71770;BME280;66386;52.122;5.420;2024-01-25T05:22:47;102950.72;;;2.31;100.00
71770;BME280;66386;52.122;5.420;2024-01-25T05:25:13;102946.50;;;2.32;100.00
71770;BME280;66386;52.122;5.420;2024-01-25T05:27:40;102948.91;;;2.27;100.00
71770;BME280;66386;52.122;5.420;2024-01-25T05:30:07;102946.34;;;2.27;100.00
71770;BME280;66386;52.122;5.420;2024-01-25T05:32:34;102946.44;;;2.30;100.00
71770;BME280;66386;52.122;5.420;2024-01-25T05:35:01;102939.81;;;2.34;100.00
71770;BME280;66386;52.122;5.420;2024-01-25T05:37:27;102956.88;;;2.39;100.00
71770;BME280;66386;52.122;5.420;2024-01-25T05:39:54;102959.47;;;2.41;100.00
71770;BME280;66386;52.122;5.420;2024-01-25T05:42:21;102960.31;;;2.40;100.00
71770;BME280;66386;52.122;5.420;2024-01-25T05:44:47;102957.72;;;2.38;100.00
71770;BME280;66386;52.122;5.420;2024-01-25T05:47:14;102971.16;;;2.36;100.00
71770;BME280;66386;52.122;5.420;2024-01-25T05:49:40;102966.22;;;2.40;100.00
71770;BME280;66386;52.122;5.420;2024-01-25T05:52:07;102967.25;;;2.46;100.00
71770;BME280;66386;52.122;5.420;2024-01-25T05:54:33;102972.38;;;2.47;100.00
71770;BME280;66386;52.122;5.420;2024-01-25T05:57:00;102963.81;;;2.45;100.00
71770;BME280;66386;52.122;5.420;2024-01-25T05:59:27;102962.97;;;2.44;100.00
71770;BME280;66386;52.122;5.420;2024-01-25T06:01:53;102961.50;;;2.51;100.00
71770;BME280;66386;52.122;5.420;2024-01-25T06:04:20;102959.97;;;2.56;100.00
71770;BME280;66386;52.122;5.420;2024-01-25T06:06:47;102973.53;;;2.58;100.00
71770;BME280;66386;52.122;5.420;2024-01-25T06:09:14;102973.34;;;2.52;100.00
71770;BME280;66386;52.122;5.420;2024-01-25T06:11:41;102981.63;;;2.47;100.00
71770;BME280;66386;52.122;5.420;2024-01-25T06:14:09;102975.56;;;2.41;100.00
71770;BME280;66386;52.122;5.420;2024-01-25T06:16:35;102981.38;;;2.37;100.00
71770;BME280;66386;52.122;5.420;2024-01-25T06:19:03;102974.41;;;2.32;100.00
71770;BME280;66386;52.122;5.420;2024-01-25T06:21:30;102972.69;;;2.31;100.00
71770;BME280;66386;52.122;5.420;2024-01-25T06:23:57;102974.31;;;2.29;100.00
71770;BME280;66386;52.122;5.420;2024-01-25T06:26:23;102977.72;;;2.29;100.00
71770;BME280;66386;52.122;5.420;2024-01-25T06:28:50;102987.00;;;2.29;100.00
71770;BME280;66386;52.122;5.420;2024-01-25T06:31:16;102984.56;;;2.32;100.00
71770;BME280;66386;52.122;5.420;2024-01-25T06:33:43;102992.97;;;2.31;100.00
71770;BME280;66386;52.122;5.420;2024-01-25T06:36:13;102991.09;;;2.23;100.00
71770;BME280;66386;52.122;5.420;2024-01-25T06:38:42;102988.31;;;2.17;100.00
71770;BME280;66386;52.122;5.420;2024-01-25T06:41:09;102987.41;;;2.15;100.00
71770;BME280;66386;52.122;5.420;2024-01-25T06:43:36;102992.44;;;2.14;100.00
71770;BME280;66386;52.122;5.420;2024-01-25T06:46:02;102990.72;;;2.13;100.00
71770;BME280;66386;52.122;5.420;2024-01-25T06:48:29;102997.53;;;2.14;100.00
71770;BME280;66386;52.122;5.420;2024-01-25T06:50:56;102996.63;;;2.13;100.00
71770;BME280;66386;52.122;5.420;2024-01-25T06:53:22;102994.06;;;2.12;100.00
71770;BME280;66386;52.122;5.420;2024-01-25T06:55:49;102990.56;;;2.08;100.00
71770;BME280;66386;52.122;5.420;2024-01-25T06:58:15;102994.59;;;2.03;100.00
71770;BME280;66386;52.122;5.420;2024-01-25T07:00:43;102993.59;;;1.98;100.00
71770;BME280;66386;52.122;5.420;2024-01-25T07:03:11;103005.44;;;1.97;100.00
71770;BME280;66386;52.122;5.420;2024-01-25T07:05:38;103005.50;;;1.99;100.00
71770;BME280;66386;52.122;5.420;2024-01-25T07:08:05;103003.09;;;2.03;100.00
71770;BME280;66386;52.122;5.420;2024-01-25T07:10:31;103000.56;;;2.03;100.00
71770;BME280;66386;52.122;5.420;2024-01-25T07:12:58;102996.19;;;1.99;100.00
71770;BME280;66386;52.122;5.420;2024-01-25T07:15:25;102999.44;;;1.95;100.00
71770;BME280;66386;52.122;5.420;2024-01-25T07:17:51;102995.94;;;1.91;100.00
71770;BME280;66386;52.122;5.420;2024-01-25T07:20:18;103000.97;;;1.90;100.00
71770;BME280;66386;52.122;5.420;2024-01-25T07:22:48;102998.44;;;1.90;100.00
71770;BME280;66386;52.122;5.420;2024-01-25T07:25:15;103006.88;;;1.90;100.00
71770;BME280;66386;52.122;5.420;2024-01-25T07:27:45;103012.81;;;1.91;100.00
71770;BME280;66386;52.122;5.420;2024-01-25T07:30:12;103010.28;;;1.91;100.00
71770;BME280;66386;52.122;5.420;2024-01-25T07:32:39;103005.19;;;1.91;100.00
71770;BME280;66386;52.122;5.420;2024-01-25T07:35:09;102999.38;;;1.94;100.00
71770;BME280;66386;52.122;5.420;2024-01-25T07:37:39;103000.22;;;1.94;100.00
71770;BME280;66386;52.122;5.420;2024-01-25T07:40:08;102982.47;;;1.94;100.00
71770;BME280;66386;52.122;5.420;2024-01-25T07:42:35;102997.03;;;2.00;100.00
71770;BME280;66386;52.122;5.420;2024-01-25T07:45:02;102987.78;;;2.00;100.00
71770;BME280;66386;52.122;5.420;2024-01-25T07:47:28;102991.22;;;2.02;100.00
71770;BME280;66386;52.122;5.420;2024-01-25T07:49:56;103003.19;;;2.06;100.00
71770;BME280;66386;52.122;5.420;2024-01-25T07:52:23;102991.41;;;2.08;100.00
71770;BME280;66386;52.122;5.420;2024-01-25T07:54:52;102985.69;;;2.14;100.00
71770;BME280;66386;52.122;5.420;2024-01-25T07:57:20;102993.44;;;2.19;100.00
71770;BME280;66386;52.122;5.420;2024-01-25T07:59:46;102993.41;;;2.17;100.00
71770;BME280;66386;52.122;5.420;2024-01-25T08:02:13;102995.09;;;2.17;100.00
71770;BME280;66386;52.122;5.420;2024-01-25T08:04:42;102995.88;;;2.16;100.00
71770;BME280;66386;52.122;5.420;2024-01-25T08:07:09;102993.34;;;2.16;100.00
71770;BME280;66386;52.122;5.420;2024-01-25T08:09:37;103006.03;;;2.16;100.00
71770;BME280;66386;52.122;5.420;2024-01-25T08:12:04;103006.91;;;2.16;100.00
71770;BME280;66386;52.122;5.420;2024-01-25T08:14:30;103000.97;;;2.16;100.00
71770;BME280;66386;52.122;5.420;2024-01-25T08:16:58;103017.91;;;2.17;100.00
71770;BME280;66386;52.122;5.420;2024-01-25T08:19:24;103012.19;;;2.22;100.00
71770;BME280;66386;52.122;5.420;2024-01-25T08:21:51;103015.81;;;2.31;100.00
71770;BME280;66386;52.122;5.420;2024-01-25T08:24:18;103019.53;;;2.40;100.00
71770;BME280;66386;52.122;5.420;2024-01-25T08:26:44;103026.44;;;2.44;100.00
71770;BME280;66386;52.122;5.420;2024-01-25T08:29:11;103029.06;;;2.48;100.00
71770;BME280;66386;52.122;5.420;2024-01-25T08:31:38;103023.22;;;2.50;100.00
71770;BME280;66386;52.122;5.420;2024-01-25T08:34:04;103019.88;;;2.51;100.00
71770;BME280;66386;52.122;5.420;2024-01-25T08:36:32;103015.81;;;2.56;100.00
71770;BME280;66386;52.122;5.420;2024-01-25T08:38:59;103012.56;;;2.60;100.00
71770;BME280;66386;52.122;5.420;2024-01-25T08:41:25;103017.06;;;2.69;100.00
71770;BME280;66386;52.122;5.420;2024-01-25T08:43:52;103014.97;;;2.85;100.00
71770;BME280;66386;52.122;5.420;2024-01-25T08:46:18;103019.72;;;3.01;100.00
71770;BME280;66386;52.122;5.420;2024-01-25T08:48:45;103017.34;;;3.07;100.00
71770;BME280;66386;52.122;5.420;2024-01-25T08:51:12;103015.91;;;3.16;100.00
71770;BME280;66386;52.122;5.420;2024-01-25T08:53:39;103033.06;;;3.23;100.00
71770;BME280;66386;52.122;5.420;2024-01-25T08:56:05;103040.91;;;3.30;100.00
71770;BME280;66386;52.122;5.420;2024-01-25T08:58:32;103040.97;;;3.34;100.00
71770;BME280;66386;52.122;5.420;2024-01-25T09:00:59;103036.94;;;3.40;100.00
71770;BME280;66386;52.122;5.420;2024-01-25T09:03:26;103015.09;;;3.47;100.00
71770;BME280;66386;52.122;5.420;2024-01-25T09:05:52;103019.69;;;3.60;100.00
71770;BME280;66386;52.122;5.420;2024-01-25T09:08:19;103020.91;;;3.75;100.00
71770;BME280;66386;52.122;5.420;2024-01-25T09:10:46;103028.44;;;4.02;100.00
71770;BME280;66386;52.122;5.420;2024-01-25T09:13:13;103025.34;;;4.14;100.00
71770;BME280;66386;52.122;5.420;2024-01-25T09:15:39;103020.03;;;4.05;100.00
71770;BME280;66386;52.122;5.420;2024-01-25T09:18:06;103025.78;;;3.97;100.00
71770;BME280;66386;52.122;5.420;2024-01-25T09:20:33;103039.25;;;3.95;100.00
71770;BME280;66386;52.122;5.420;2024-01-25T09:23:00;103037.59;;;3.97;100.00
71770;BME280;66386;52.122;5.420;2024-01-25T09:25:26;103040.22;;;4.00;100.00
71770;BME280;66386;52.122;5.420;2024-01-25T09:27:53;103037.84;;;4.05;100.00
71770;BME280;66386;52.122;5.420;2024-01-25T09:30:22;103041.41;;;4.13;100.00
71770;BME280;66386;52.122;5.420;2024-01-25T09:32:49;103033.88;;;4.17;100.00
71770;BME280;66386;52.122;5.420;2024-01-25T09:35:16;103026.41;;;4.22;100.00
71770;BME280;66386;52.122;5.420;2024-01-25T09:37:43;103019.69;;;4.26;100.00
71770;BME280;66386;52.122;5.420;2024-01-25T09:40:09;103015.59;;;4.31;100.00
71770;BME280;66386;52.122;5.420;2024-01-25T09:42:37;103020.75;;;4.34;100.00
71770;BME280;66386;52.122;5.420;2024-01-25T09:45:06;103026.78;;;4.39;100.00
71770;BME280;66386;52.122;5.420;2024-01-25T09:47:34;103032.91;;;4.46;100.00
71770;BME280;66386;52.122;5.420;2024-01-25T09:50:01;103038.13;;;4.52;100.00
71770;BME280;66386;52.122;5.420;2024-01-25T09:52:28;103037.50;;;4.61;100.00
71770;BME280;66386;52.122;5.420;2024-01-25T09:54:57;103040.25;;;4.70;100.00
71770;BME280;66386;52.122;5.420;2024-01-25T09:57:27;103031.94;;;4.79;100.00
71770;BME280;66386;52.122;5.420;2024-01-25T09:59:54;103027.16;;;4.91;100.00
71770;BME280;66386;52.122;5.420;2024-01-25T10:02:24;103013.84;;;5.04;100.00
71770;BME280;66386;52.122;5.420;2024-01-25T10:04:51;102995.34;;;5.13;100.00
71770;BME280;66386;52.122;5.420;2024-01-25T10:07:41;102995.44;;;5.19;100.00
71770;BME280;66386;52.122;5.420;2024-01-25T10:10:09;102985.28;;;5.21;100.00
71770;BME280;66386;52.122;5.420;2024-01-25T10:12:42;102996.44;;;5.26;100.00
71770;BME280;66386;52.122;5.420;2024-01-25T10:15:10;103008.44;;;5.30;100.00
71770;BME280;66386;52.122;5.420;2024-01-25T10:17:38;103004.25;;;5.34;100.00
71770;BME280;66386;52.122;5.420;2024-01-25T10:20:25;103009.44;;;5.40;100.00
71770;BME280;66386;52.122;5.420;2024-01-25T10:22:57;103009.59;;;5.46;100.00
71770;BME280;66386;52.122;5.420;2024-01-25T10:25:26;103004.69;;;5.57;100.00
71770;BME280;66386;52.122;5.420;2024-01-25T10:27:54;103009.09;;;5.66;100.00
71770;BME280;66386;52.122;5.420;2024-01-25T10:30:20;103019.47;;;5.75;100.00
71770;BME280;66386;52.122;5.420;2024-01-25T10:32:49;103004.22;;;5.78;100.00
71770;BME280;66386;52.122;5.420;2024-01-25T10:35:17;103005.22;;;5.86;100.00
71770;BME280;66386;52.122;5.420;2024-01-25T10:37:49;103000.16;;;5.89;100.00
71770;BME280;66386;52.122;5.420;2024-01-25T10:40:18;103006.19;;;5.93;100.00
71770;BME280;66386;52.122;5.420;2024-01-25T10:42:46;102990.06;;;5.95;100.00
71770;BME280;66386;52.122;5.420;2024-01-25T10:45:13;102995.22;;;5.97;100.00
71770;BME280;66386;52.122;5.420;2024-01-25T10:47:40;102999.41;;;5.95;100.00
71770;BME280;66386;52.122;5.420;2024-01-25T10:50:11;103007.19;;;6.00;100.00
71770;BME280;66386;52.122;5.420;2024-01-25T10:52:41;102994.50;;;6.04;100.00
71770;BME280;66386;52.122;5.420;2024-01-25T10:55:09;102986.09;;;6.10;100.00
71770;BME280;66386;52.122;5.420;2024-01-25T10:57:43;102985.31;;;6.16;100.00
71770;BME280;66386;52.122;5.420;2024-01-25T11:00:12;102980.28;;;6.20;100.00
71770;BME280;66386;52.122;5.420;2024-01-25T11:02:41;102980.31;;;6.22;100.00
71770;BME280;66386;52.122;5.420;2024-01-25T11:05:18;102987.22;;;6.27;100.00
71770;BME280;66386;52.122;5.420;2024-01-25T11:07:49;102977.88;;;6.28;100.00
71770;BME280;66386;52.122;5.420;2024-01-25T11:10:21;102954.97;;;6.33;100.00
71770;BME280;66386;52.122;5.420;2024-01-25T11:12:54;102929.53;;;6.40;100.00
71770;BME280;66386;52.122;5.420;2024-01-25T11:15:23;102938.09;;;6.44;100.00
71770;BME280;66386;52.122;5.420;2024-01-25T11:17:56;102938.09;;;6.44;100.00
71770;BME280;66386;52.122;5.420;2024-01-25T11:20:23;102938.16;;;6.47;100.00
71770;BME280;66386;52.122;5.420;2024-01-25T11:23:04;102938.19;;;6.50;100.00
71770;BME280;66386;52.122;5.420;2024-01-25T11:25:32;102945.84;;;6.50;100.00
71770;BME280;66386;52.122;5.420;2024-01-25T11:28:04;102945.88;;;6.53;100.00
71770;BME280;66386;52.122;5.420;2024-01-25T11:30:33;102943.38;;;6.56;100.00
71770;BME280;66386;52.122;5.420;2024-01-25T11:33:04;102934.84;;;6.54;100.00
71770;BME280;66386;52.122;5.420;2024-01-25T11:35:32;102926.28;;;6.54;100.00
71770;BME280;66386;52.122;5.420;2024-01-25T11:37:59;102912.69;;;6.53;100.00
71770;BME280;66386;52.122;5.420;2024-01-25T11:40:26;102901.56;;;6.51;100.00
71770;BME280;66386;52.122;5.420;2024-01-25T11:42:55;102910.13;;;6.55;100.00
71770;BME280;66386;52.122;5.420;2024-01-25T11:45:22;102909.34;;;6.59;100.00
71770;BME280;66386;52.122;5.420;2024-01-25T11:47:49;102907.69;;;6.62;100.00
71770;BME280;66386;52.122;5.420;2024-01-25T11:50:16;102891.56;;;6.67;100.00
71770;BME280;66386;52.122;5.420;2024-01-25T11:52:43;102896.72;;;6.71;100.00
71770;BME280;66386;52.122;5.420;2024-01-25T11:55:10;102887.38;;;6.72;100.00
71770;BME280;66386;52.122;5.420;2024-01-25T11:57:38;102881.44;;;6.76;100.00
71770;BME280;66386;52.122;5.420;2024-01-25T12:00:09;102874.69;;;6.79;100.00
71770;BME280;66386;52.122;5.420;2024-01-25T12:02:37;102868.72;;;6.80;100.00
71770;BME280;66386;52.122;5.420;2024-01-25T12:05:04;102874.69;;;6.79;100.00
71770;BME280;66386;52.122;5.420;2024-01-25T12:07:32;102874.66;;;6.78;100.00
71770;BME280;66386;52.122;5.420;2024-01-25T12:10:15;102878.88;;;6.76;100.00
71770;BME280;66386;52.122;5.420;2024-01-25T12:12:44;102878.84;;;6.74;100.00
71770;BME280;66386;52.122;5.420;2024-01-25T12:15:10;102871.22;;;6.76;100.00
71770;BME280;66386;52.122;5.420;2024-01-25T12:17:37;102861.88;;;6.76;100.00
71770;BME280;66386;52.122;5.420;2024-01-25T12:20:06;102870.44;;;6.81;100.00
71770;BME280;66386;52.122;5.420;2024-01-25T12:22:38;102856.84;;;6.86;100.00
71770;BME280;66386;52.122;5.420;2024-01-25T12:25:09;102851.81;;;6.93;100.00
71770;BME280;66386;52.122;5.420;2024-01-25T12:27:39;102853.59;;;6.99;100.00
71770;BME280;66386;52.122;5.420;2024-01-25T12:30:07;102857.06;;;7.04;100.00
71770;BME280;66386;52.122;5.420;2024-01-25T12:32:35;102851.06;;;7.05;100.00
71770;BME280;66386;52.122;5.420;2024-01-25T12:35:01;102849.44;;;7.09;100.00
71770;BME280;66386;52.122;5.420;2024-01-25T12:37:29;102850.28;;;7.11;100.00
71770;BME280;66386;52.122;5.420;2024-01-25T12:39:56;102840.94;;;7.13;100.00
71770;BME280;66386;52.122;5.420;2024-01-25T12:42:23;102852.06;;;7.18;100.00
71770;BME280;66386;52.122;5.420;2024-01-25T12:44:53;102840.19;;;7.23;100.00
71770;BME280;66386;52.122;5.420;2024-01-25T12:47:23;102835.97;;;7.30;100.00
71770;BME280;66386;52.122;5.420;2024-01-25T12:49:50;102838.63;;;7.36;100.00
71770;BME280;66386;52.122;5.420;2024-01-25T12:52:17;102835.22;;;7.40;100.00
71770;BME280;66386;52.122;5.420;2024-01-25T12:54:43;102830.97;;;7.41;100.00